Terminal Aerodrome Forecast
Issued by NWS

Home | Current Version | Previous Version | Text Only | Print | Product List | Glossary On
Versions: 1 2 3 4 5 6 7 8 9 10 11 12 13 14 15 16 17 18
746
FTUS43 KDTX 261619 AAA
TAFMBS
TAF AMD
KMBS 261619Z 2616/2712 10008KT 6SM -SHRA BR BKN009 OVC050
      TEMPO 2616/2617 3SM -SHRA BR OVC008
     FM261700 14010KT 3SM -RA BKN009 OVC070
      TEMPO 2617/2619 1 1/2SM RA OVC008
     FM262200 15010KT 5SM -SHRA BKN010 OVC025
     FM270100 16008KT 3SM -SHRA BR OVC006
     FM270500 21008KT 3SM -DZ BR OVC006=

USA.gov is the U.S. government's official web portal to all federal, state and local government web resources and services.